sensor_id;sensor_type;location;lat;lon;timestamp;pressure;altitude;pressure_sealevel;temperature;humidity
77288;BME280;66345;42.694;23.346;2023-02-01T00:01:50;95642.81;;;1.50;70.51
77288;BME280;66345;42.694;23.346;2023-02-01T00:04:15;95644.44;;;1.42;70.42
77288;BME280;66345;42.694;23.346;2023-02-01T00:06:41;95634.91;;;1.61;69.89
77288;BME280;66345;42.694;23.346;2023-02-01T00:09:07;95635.94;;;1.49;70.57
77288;BME280;66345;42.694;23.346;2023-02-01T00:11:33;95641.91;;;1.30;70.63
77288;BME280;66345;42.694;23.346;2023-02-01T00:13:58;95644.44;;;1.42;71.25
77288;BME280;66345;42.694;23.346;2023-02-01T00:16:29;95641.41;;;1.36;70.79
77288;BME280;66345;42.694;23.346;2023-02-01T00:19:04;95651.84;;;1.36;70.65
77288;BME280;66345;42.694;23.346;2023-02-01T00:21:31;95639.53;;;1.48;70.06
77288;BME280;66345;42.694;23.346;2023-02-01T00:23:57;95645.84;;;1.46;70.19
77288;BME280;66345;42.694;23.346;2023-02-01T00:26:31;95635.13;;;1.49;69.21
77288;BME280;66345;42.694;23.346;2023-02-01T00:28:56;95636.53;;;1.53;69.18
77288;BME280;66345;42.694;23.346;2023-02-01T00:31:22;95637.31;;;1.44;69.75
77288;BME280;66345;42.694;23.346;2023-02-01T00:33:48;95643.22;;;1.46;69.83
77288;BME280;66345;42.694;23.346;2023-02-01T00:36:14;95633.28;;;1.39;69.66
77288;BME280;66345;42.694;23.346;2023-02-01T00:38:40;95637.56;;;1.41;69.32
77288;BME280;66345;42.694;23.346;2023-02-01T00:41:11;95628.81;;;1.51;69.01
77288;BME280;66345;42.694;23.346;2023-02-01T00:43:36;95634.16;;;1.50;68.72
77288;BME280;66345;42.694;23.346;2023-02-01T00:46:02;95623.84;;;1.48;68.21
77288;BME280;66345;42.694;23.346;2023-02-01T00:48:28;95634.81;;;1.42;67.95
77288;BME280;66345;42.694;23.346;2023-02-01T00:50:54;95634.16;;;1.50;68.02
77288;BME280;66345;42.694;23.346;2023-02-01T00:53:19;95621.88;;;1.41;67.79
77288;BME280;66345;42.694;23.346;2023-02-01T00:55:46;95623.09;;;1.36;67.66
77288;BME280;66345;42.694;23.346;2023-02-01T00:58:11;95626.66;;;1.35;67.31
77288;BME280;66345;42.694;23.346;2023-02-01T01:00:37;95623.47;;;1.32;67.84
77288;BME280;66345;42.694;23.346;2023-02-01T01:03:02;95624.25;;;1.44;66.75
77288;BME280;66345;42.694;23.346;2023-02-01T01:05:45;95622.00;;;1.39;66.98
77288;BME280;66345;42.694;23.346;2023-02-01T01:08:11;95618.47;;;1.50;66.21
77288;BME280;66345;42.694;23.346;2023-02-01T01:10:36;95621.31;;;1.37;66.33
77288;BME280;66345;42.694;23.346;2023-02-01T01:13:02;95621.03;;;1.40;66.07
77288;BME280;66345;42.694;23.346;2023-02-01T01:15:27;95624.13;;;1.24;65.75
77288;BME280;66345;42.694;23.346;2023-02-01T01:17:53;95619.22;;;1.31;66.22
77288;BME280;66345;42.694;23.346;2023-02-01T01:20:18;95616.59;;;1.31;66.13
77288;BME280;66345;42.694;23.346;2023-02-01T01:22:47;95622.06;;;1.28;66.42
77288;BME280;66345;42.694;23.346;2023-02-01T01:25:12;95617.97;;;1.35;65.82
77288;BME280;66345;42.694;23.346;2023-02-01T01:27:37;95620.78;;;1.43;65.15
77288;BME280;66345;42.694;23.346;2023-02-01T01:30:03;95615.25;;;1.36;64.61
77288;BME280;66345;42.694;23.346;2023-02-01T01:32:29;95623.03;;;1.27;65.22
77288;BME280;66345;42.694;23.346;2023-02-01T01:34:54;95620.03;;;1.31;65.17
77288;BME280;66345;42.694;23.346;2023-02-01T01:37:20;95630.34;;;1.33;64.38
77288;BME280;66345;42.694;23.346;2023-02-01T01:39:45;95627.94;;;1.20;64.57
77288;BME280;66345;42.694;23.346;2023-02-01T01:42:11;95636.50;;;1.22;63.88
77288;BME280;66345;42.694;23.346;2023-02-01T01:47:25;95637.25;;;0.92;64.01
77288;BME280;66345;42.694;23.346;2023-02-01T01:49:51;95632.44;;;0.97;64.56
77288;BME280;66345;42.694;23.346;2023-02-01T01:52:17;95624.19;;;0.92;64.25
77288;BME280;66345;42.694;23.346;2023-02-01T01:54:47;95636.09;;;0.85;64.22
77288;BME280;66345;42.694;23.346;2023-02-01T01:57:21;95629.91;;;0.86;64.70
77288;BME280;66345;42.694;23.346;2023-02-01T01:59:54;95626.13;;;0.79;64.12
77288;BME280;66345;42.694;23.346;2023-02-01T02:02:22;95626.28;;;0.77;64.65
77288;BME280;66345;42.694;23.346;2023-02-01T02:04:47;95622.25;;;0.73;63.88
77288;BME280;66345;42.694;23.346;2023-02-01T02:07:21;95635.47;;;0.61;64.97
77288;BME280;66345;42.694;23.346;2023-02-01T02:09:48;95628.13;;;0.54;64.72
77288;BME280;66345;42.694;23.346;2023-02-01T02:12:13;95623.03;;;0.53;64.51
77288;BME280;66345;42.694;23.346;2023-02-01T02:14:39;95624.56;;;0.55;65.07
77288;BME280;66345;42.694;23.346;2023-02-01T02:17:17;95623.75;;;0.55;65.30
77288;BME280;66345;42.694;23.346;2023-02-01T02:39:06;95620.94;;;0.47;65.25
77288;BME280;66345;42.694;23.346;2023-02-01T02:52:53;95619.22;;;0.57;66.38
77288;BME280;66345;42.694;23.346;2023-02-01T02:55:40;95617.69;;;0.54;65.68
77288;BME280;66345;42.694;23.346;2023-02-01T02:58:07;95606.03;;;0.59;66.03
77288;BME280;66345;42.694;23.346;2023-02-01T03:00:53;95619.81;;;0.61;65.88
77288;BME280;66345;42.694;23.346;2023-02-01T03:03:38;95620.94;;;0.68;65.82
77288;BME280;66345;42.694;23.346;2023-02-01T03:06:22;95621.88;;;0.78;65.05
77288;BME280;66345;42.694;23.346;2023-02-01T03:08:48;95625.81;;;0.72;64.94
77288;BME280;66345;42.694;23.346;2023-02-01T03:11:14;95626.63;;;0.73;64.98
77288;BME280;66345;42.694;23.346;2023-02-01T03:22:05;95627.31;;;0.75;63.84
77288;BME280;66345;42.694;23.346;2023-02-01T03:24:40;95645.88;;;0.72;64.61
77288;BME280;66345;42.694;23.346;2023-02-01T03:27:25;95643.53;;;0.69;64.15
77288;BME280;66345;42.694;23.346;2023-02-01T03:30:06;95648.75;;;0.69;64.62
77288;BME280;66345;42.694;23.346;2023-02-01T03:32:38;95649.50;;;0.80;64.50
77288;BME280;66345;42.694;23.346;2023-02-01T03:35:54;95656.50;;;0.91;64.08
77288;BME280;66345;42.694;23.346;2023-02-01T03:43:35;95644.50;;;0.89;62.74
77288;BME280;66345;42.694;23.346;2023-02-01T03:46:07;95654.19;;;0.98;62.97
77288;BME280;66345;42.694;23.346;2023-02-01T03:48:35;95652.31;;;0.89;63.11
77288;BME280;66345;42.694;23.346;2023-02-01T03:51:03;95646.34;;;0.98;62.83
77288;BME280;66345;42.694;23.346;2023-02-01T03:53:30;95644.56;;;0.77;63.09
77288;BME280;66345;42.694;23.346;2023-02-01T03:55:57;95649.50;;;0.80;63.17
77288;BME280;66345;42.694;23.346;2023-02-01T03:58:23;95649.56;;;0.69;63.05
77288;BME280;66345;42.694;23.346;2023-02-01T04:00:57;95641.47;;;0.72;63.44
77288;BME280;66345;42.694;23.346;2023-02-01T04:03:24;95657.06;;;0.63;63.97
77288;BME280;66345;42.694;23.346;2023-02-01T04:05:50;95646.69;;;0.72;63.30
77288;BME280;66345;42.694;23.346;2023-02-01T04:08:17;95638.88;;;0.72;62.90
77288;BME280;66345;42.694;23.346;2023-02-01T04:10:42;95648.56;;;0.81;63.13
77288;BME280;66345;42.694;23.346;2023-02-01T04:13:09;95644.50;;;0.89;62.63
77288;BME280;66345;42.694;23.346;2023-02-01T04:15:34;95638.56;;;0.87;62.39
77288;BME280;66345;42.694;23.346;2023-02-01T04:18:00;95643.72;;;0.98;62.59
77288;BME280;66345;42.694;23.346;2023-02-01T04:20:25;95651.13;;;0.93;62.60
77288;BME280;66345;42.694;23.346;2023-02-01T04:22:51;95645.66;;;0.96;63.28
77288;BME280;66345;42.694;23.346;2023-02-01T04:25:16;95648.91;;;1.09;62.90
77288;BME280;66345;42.694;23.346;2023-02-01T04:27:42;95643.63;;;0.99;63.04
77288;BME280;66345;42.694;23.346;2023-02-01T04:30:08;95650.69;;;1.08;62.59
77288;BME280;66345;42.694;23.346;2023-02-01T04:32:36;95650.84;;;1.07;63.18
77288;BME280;66345;42.694;23.346;2023-02-01T04:35:02;95643.41;;;1.12;62.95
77288;BME280;66345;42.694;23.346;2023-02-01T04:37:27;95642.84;;;1.08;63.14
77288;BME280;66345;42.694;23.346;2023-02-01T04:39:54;95646.50;;;1.17;63.53
77288;BME280;66345;42.694;23.346;2023-02-01T04:42:19;95643.59;;;1.20;63.22
77288;BME280;66345;42.694;23.346;2023-02-01T04:44:45;95650.72;;;1.29;62.89
77288;BME280;66345;42.694;23.346;2023-02-01T04:47:10;95646.50;;;1.17;63.23
77288;BME280;66345;42.694;23.346;2023-02-01T04:49:36;95653.50;;;1.17;64.13
77288;BME280;66345;42.694;23.346;2023-02-01T04:52:01;95653.44;;;1.28;63.71
77288;BME280;66345;42.694;23.346;2023-02-01T04:54:27;95659.06;;;1.23;63.78
77288;BME280;66345;42.694;23.346;2023-02-01T04:56:52;95651.06;;;1.04;64.15
77288;BME280;66345;42.694;23.346;2023-02-01T04:59:18;95665.97;;;1.13;64.14
77288;BME280;66345;42.694;23.346;2023-02-01T05:01:43;95665.81;;;1.26;64.65
77288;BME280;66345;42.694;23.346;2023-02-01T05:04:09;95666.06;;;1.23;64.93
77288;BME280;66345;42.694;23.346;2023-02-01T05:06:34;95662.50;;;1.24;64.73
77288;BME280;66345;42.694;23.346;2023-02-01T05:09:00;95670.56;;;1.21;64.93
77288;BME280;66345;42.694;23.346;2023-02-01T05:11:25;95675.44;;;1.25;64.75
77288;BME280;66345;42.694;23.346;2023-02-01T05:14:09;95675.56;;;1.24;65.91
77288;BME280;66345;42.694;23.346;2023-02-01T05:16:35;95679.28;;;1.21;65.63
77288;BME280;66345;42.694;23.346;2023-02-01T05:19:00;95682.06;;;1.29;65.39
77288;BME280;66345;42.694;23.346;2023-02-01T05:21:26;95679.84;;;1.25;65.62
77288;BME280;66345;42.694;23.346;2023-02-01T05:23:51;95681.94;;;1.31;65.22
77288;BME280;66345;42.694;23.346;2023-02-01T05:26:36;95674.88;;;1.22;65.15
77288;BME280;66345;42.694;23.346;2023-02-01T05:29:02;95670.19;;;1.25;65.47
77288;BME280;66345;42.694;23.346;2023-02-01T05:31:27;95676.31;;;1.35;65.31
77288;BME280;66345;42.694;23.346;2023-02-01T05:33:53;95685.25;;;1.54;65.11
77288;BME280;66345;42.694;23.346;2023-02-01T05:36:19;95685.94;;;1.35;64.93
77288;BME280;66345;42.694;23.346;2023-02-01T05:38:44;95679.69;;;1.47;65.04
77288;BME280;66345;42.694;23.346;2023-02-01T05:41:09;95683.09;;;1.59;64.54
77288;BME280;66345;42.694;23.346;2023-02-01T05:43:35;95675.25;;;1.59;64.34
77288;BME280;66345;42.694;23.346;2023-02-01T05:46:00;95678.28;;;1.64;64.63
77288;BME280;66345;42.694;23.346;2023-02-01T05:48:26;95682.81;;;1.62;64.36
77288;BME280;66345;42.694;23.346;2023-02-01T05:50:51;95677.13;;;1.57;64.63
77288;BME280;66345;42.694;23.346;2023-02-01T05:53:17;95674.00;;;1.63;64.26
77288;BME280;66345;42.694;23.346;2023-02-01T05:55:42;95672.22;;;1.63;64.30
77288;BME280;66345;42.694;23.346;2023-02-01T05:58:08;95667.75;;;1.75;64.40
77288;BME280;66345;42.694;23.346;2023-02-01T06:00:33;95676.28;;;1.77;64.25
77288;BME280;66345;42.694;23.346;2023-02-01T06:02:59;95678.47;;;1.72;64.37
77288;BME280;66345;42.694;23.346;2023-02-01T06:05:25;95685.00;;;1.87;63.34
77288;BME280;66345;42.694;23.346;2023-02-01T06:07:50;95676.19;;;1.88;63.23
77288;BME280;66345;42.694;23.346;2023-02-01T06:10:19;95687.19;;;1.82;63.33
77288;BME280;66345;42.694;23.346;2023-02-01T06:12:45;95687.91;;;1.84;63.50
77288;BME280;66345;42.694;23.346;2023-02-01T06:15:11;95682.16;;;1.90;62.10
77288;BME280;66345;42.694;23.346;2023-02-01T06:17:37;95687.78;;;1.95;62.72
77288;BME280;66345;42.694;23.346;2023-02-01T06:20:04;95681.88;;;1.93;63.52
77288;BME280;66345;42.694;23.346;2023-02-01T06:22:32;95680.22;;;1.92;62.12
77288;BME280;66345;42.694;23.346;2023-02-01T06:24:58;95683.59;;;2.04;62.21
77288;BME280;66345;42.694;23.346;2023-02-01T06:27:24;95681.53;;;2.08;61.87
77288;BME280;66345;42.694;23.346;2023-02-01T06:29:50;95683.44;;;2.06;61.79
77288;BME280;66345;42.694;23.346;2023-02-01T06:32:15;95676.66;;;2.03;62.08
77288;BME280;66345;42.694;23.346;2023-02-01T06:34:42;95682.06;;;2.11;62.22
77288;BME280;66345;42.694;23.346;2023-02-01T06:37:08;95679.75;;;2.18;61.24
77288;BME280;66345;42.694;23.346;2023-02-01T06:39:36;95689.31;;;2.29;61.48
77288;BME280;66345;42.694;23.346;2023-02-01T06:42:02;95691.66;;;2.32;61.85
77288;BME280;66345;42.694;23.346;2023-02-01T06:44:27;95697.16;;;2.29;60.73
77288;BME280;66345;42.694;23.346;2023-02-01T06:46:53;95705.03;;;2.38;61.17
77288;BME280;66345;42.694;23.346;2023-02-01T06:49:19;95701.75;;;2.36;60.78
77288;BME280;66345;42.694;23.346;2023-02-01T06:51:45;95699.38;;;2.33;60.83
77288;BME280;66345;42.694;23.346;2023-02-01T06:54:10;95709.75;;;2.35;60.84
77288;BME280;66345;42.694;23.346;2023-02-01T06:56:36;95713.72;;;2.39;60.70
77288;BME280;66345;42.694;23.346;2023-02-01T06:59:04;95710.00;;;2.41;60.50
77288;BME280;66345;42.694;23.346;2023-02-01T07:01:29;95711.56;;;2.44;60.38
77288;BME280;66345;42.694;23.346;2023-02-01T07:03:55;95712.75;;;2.40;60.34
77288;BME280;66345;42.694;23.346;2023-02-01T07:06:20;95716.66;;;2.55;59.90
77288;BME280;66345;42.694;23.346;2023-02-01T07:08:45;95735.84;;;2.56;60.35
77288;BME280;66345;42.694;23.346;2023-02-01T07:11:12;95735.66;;;2.47;59.94
77288;BME280;66345;42.694;23.346;2023-02-01T07:13:39;95731.97;;;2.50;60.39
77288;BME280;66345;42.694;23.346;2023-02-01T07:16:07;95736.34;;;2.40;60.23
77288;BME280;66345;42.694;23.346;2023-02-01T07:18:34;95742.72;;;2.57;59.67
77288;BME280;66345;42.694;23.346;2023-02-01T07:20:59;95751.97;;;2.51;59.22
77288;BME280;66345;42.694;23.346;2023-02-01T07:23:26;95753.47;;;2.54;59.37
77288;BME280;66345;42.694;23.346;2023-02-01T07:25:59;95755.72;;;2.58;59.66
77288;BME280;66345;42.694;23.346;2023-02-01T07:28:28;95749.66;;;2.67;59.06
77288;BME280;66345;42.694;23.346;2023-02-01T07:30:53;95747.28;;;2.64;59.67
77288;BME280;66345;42.694;23.346;2023-02-01T07:33:23;95745.63;;;2.63;59.17
77288;BME280;66345;42.694;23.346;2023-02-01T07:35:50;95756.28;;;2.71;59.86
77288;BME280;66345;42.694;23.346;2023-02-01T07:38:16;95761.41;;;2.83;58.38
77288;BME280;66345;42.694;23.346;2023-02-01T07:40:42;95763.47;;;2.79;58.85
77288;BME280;66345;42.694;23.346;2023-02-01T07:43:09;95758.13;;;2.90;58.47
77288;BME280;66345;42.694;23.346;2023-02-01T07:45:35;95763.66;;;3.06;57.66
77288;BME280;66345;42.694;23.346;2023-02-01T07:48:01;95760.38;;;3.24;57.91
77288;BME280;66345;42.694;23.346;2023-02-01T07:50:27;95762.31;;;3.22;58.20
77288;BME280;66345;42.694;23.346;2023-02-01T07:52:53;95763.97;;;3.13;57.68
77288;BME280;66345;42.694;23.346;2023-02-01T07:55:19;95773.88;;;3.10;57.73
77288;BME280;66345;42.694;23.346;2023-02-01T07:57:45;95769.59;;;2.99;57.98
77288;BME280;66345;42.694;23.346;2023-02-01T08:00:11;95779.56;;;3.15;57.32
77288;BME280;66345;42.694;23.346;2023-02-01T08:02:59;95784.66;;;3.06;58.04
77288;BME280;66345;42.694;23.346;2023-02-01T08:05:24;95783.81;;;3.06;57.67
77288;BME280;66345;42.694;23.346;2023-02-01T08:07:51;95788.09;;;3.17;57.36
77288;BME280;66345;42.694;23.346;2023-02-01T08:10:17;95782.47;;;3.12;57.48
77288;BME280;66345;42.694;23.346;2023-02-01T08:12:43;95788.00;;;3.28;58.25
77288;BME280;66345;42.694;23.346;2023-02-01T08:15:13;95778.31;;;3.19;57.77
77288;BME280;66345;42.694;23.346;2023-02-01T08:17:39;95779.97;;;3.39;57.07
77288;BME280;66345;42.694;23.346;2023-02-01T08:20:05;95775.13;;;3.25;56.74
77288;BME280;66345;42.694;23.346;2023-02-01T08:22:32;95780.69;;;3.41;56.66
77288;BME280;66345;42.694;23.346;2023-02-01T08:24:57;95773.22;;;3.46;56.43
77288;BME280;66345;42.694;23.346;2023-02-01T08:27:26;95779.44;;;3.55;55.79
77288;BME280;66345;42.694;23.346;2023-02-01T08:29:52;95781.09;;;3.75;55.61
77288;BME280;66345;42.694;23.346;2023-02-01T08:32:19;95783.19;;;3.72;55.65
77288;BME280;66345;42.694;23.346;2023-02-01T08:34:44;95783.28;;;3.70;56.19
77288;BME280;66345;42.694;23.346;2023-02-01T08:37:10;95785.53;;;3.65;55.52
77288;BME280;66345;42.694;23.346;2023-02-01T08:39:35;95777.34;;;3.87;55.39
77288;BME280;66345;42.694;23.346;2023-02-01T08:42:01;95779.84;;;3.79;55.34
77288;BME280;66345;42.694;23.346;2023-02-01T08:44:45;95774.88;;;3.86;54.79
77288;BME280;66345;42.694;23.346;2023-02-01T08:47:12;95775.63;;;4.15;53.83
77288;BME280;66345;42.694;23.346;2023-02-01T08:49:37;95760.06;;;4.41;53.49
77288;BME280;66345;42.694;23.346;2023-02-01T08:52:03;95768.72;;;4.61;52.75
77288;BME280;66345;42.694;23.346;2023-02-01T08:54:28;95761.78;;;4.88;52.22
77288;BME280;66345;42.694;23.346;2023-02-01T08:56:54;95753.47;;;4.92;52.07
77288;BME280;66345;42.694;23.346;2023-02-01T08:59:20;95756.09;;;4.92;51.41
77288;BME280;66345;42.694;23.346;2023-02-01T09:01:45;95756.94;;;5.28;51.17
77288;BME280;66345;42.694;23.346;2023-02-01T09:04:10;95754.00;;;5.14;50.91
77288;BME280;66345;42.694;23.346;2023-02-01T09:06:36;95768.16;;;4.58;51.88
77288;BME280;66345;42.694;23.346;2023-02-01T09:09:02;95777.63;;;4.41;52.21
77288;BME280;66345;42.694;23.346;2023-02-01T09:11:27;95784.84;;;4.29;52.71
77288;BME280;66345;42.694;23.346;2023-02-01T09:13:53;95785.03;;;4.18;52.47
77288;BME280;66345;42.694;23.346;2023-02-01T09:16:18;95781.13;;;4.32;53.09
77288;BME280;66345;42.694;23.346;2023-02-01T09:18:43;95779.69;;;4.37;52.49
77288;BME280;66345;42.694;23.346;2023-02-01T09:21:09;95790.00;;;4.21;52.67
77288;BME280;66345;42.694;23.346;2023-02-01T09:23:35;95788.75;;;4.25;53.29
77288;BME280;66345;42.694;23.346;2023-02-01T09:26:01;95787.34;;;4.31;52.58
77288;BME280;66345;42.694;23.346;2023-02-01T09:28:27;95776.34;;;4.45;52.94
77288;BME280;66345;42.694;23.346;2023-02-01T09:31:00;95772.78;;;4.73;51.29
77288;BME280;66345;42.694;23.346;2023-02-01T09:33:27;95771.63;;;4.86;51.15
77288;BME280;66345;42.694;23.346;2023-02-01T09:38:22;95761.28;;;5.02;50.16
77288;BME280;66345;42.694;23.346;2023-02-01T09:40:47;95766.16;;;4.97;50.73
77288;BME280;66345;42.694;23.346;2023-02-01T09:48:30;95753.69;;;4.44;51.76
77288;BME280;66345;42.694;23.346;2023-02-01T09:50:58;95751.88;;;4.54;52.27
77288;BME280;66345;42.694;23.346;2023-02-01T09:53:35;95750.91;;;4.55;52.39
77288;BME280;66345;42.694;23.346;2023-02-01T09:56:06;95739.81;;;4.52;51.90
77288;BME280;66345;42.694;23.346;2023-02-01T09:58:35;95738.09;;;4.70;50.72
77288;BME280;66345;42.694;23.346;2023-02-01T10:01:04;95729.41;;;4.60;51.71
77288;BME280;66345;42.694;23.346;2023-02-01T10:03:33;95722.34;;;4.60;50.60
77288;BME280;66345;42.694;23.346;2023-02-01T10:08:55;95733.09;;;4.77;51.00
77288;BME280;66345;42.694;23.346;2023-02-01T10:20:16;95694.84;;;7.24;44.50
77288;BME280;66345;42.694;23.346;2023-02-01T10:22:51;95687.97;;;9.22;40.24
77288;BME280;66345;42.694;23.346;2023-02-01T10:25:26;95678.94;;;9.77;37.66
77288;BME280;66345;42.694;23.346;2023-02-01T10:27:54;95674.75;;;10.50;36.87
77288;BME280;66345;42.694;23.346;2023-02-01T10:30:28;95670.13;;;12.38;34.02
77288;BME280;66345;42.694;23.346;2023-02-01T10:32:57;95675.41;;;10.37;36.25
77288;BME280;66345;42.694;23.346;2023-02-01T10:35:31;95686.88;;;10.15;36.69
77288;BME280;66345;42.694;23.346;2023-02-01T10:38:02;95665.56;;;10.08;37.51
77288;BME280;66345;42.694;23.346;2023-02-01T10:40:28;95649.78;;;11.96;34.10
77288;BME280;66345;42.694;23.346;2023-02-01T10:42:59;95663.19;;;12.78;32.45
77288;BME280;66345;42.694;23.346;2023-02-01T10:45:30;95665.91;;;10.94;35.46
77288;BME280;66345;42.694;23.346;2023-02-01T10:47:59;95668.81;;;9.81;36.80
77288;BME280;66345;42.694;23.346;2023-02-01T10:55:52;95662.97;;;9.48;38.66
77288;BME280;66345;42.694;23.346;2023-02-01T10:58:30;95658.31;;;9.87;37.83
77288;BME280;66345;42.694;23.346;2023-02-01T11:01:04;95665.34;;;9.95;37.40
77288;BME280;66345;42.694;23.346;2023-02-01T11:03:56;95669.06;;;9.02;39.66
77288;BME280;66345;42.694;23.346;2023-02-01T11:06:34;95661.94;;;9.03;39.54
77288;BME280;66345;42.694;23.346;2023-02-01T11:16:53;95680.00;;;6.56;44.50
77288;BME280;66345;42.694;23.346;2023-02-01T11:19:19;95677.34;;;6.14;45.56
77288;BME280;66345;42.694;23.346;2023-02-01T11:21:50;95670.69;;;6.02;45.56
77288;BME280;66345;42.694;23.346;2023-02-01T11:24:23;95670.53;;;6.03;45.97
77288;BME280;66345;42.694;23.346;2023-02-01T11:26:49;95659.13;;;5.95;45.43
77288;BME280;66345;42.694;23.346;2023-02-01T11:29:18;95663.28;;;5.97;46.73
77288;BME280;66345;42.694;23.346;2023-02-01T11:31:47;95659.97;;;5.77;47.08
77288;BME280;66345;42.694;23.346;2023-02-01T11:34:20;95653.19;;;5.93;46.91
77288;BME280;66345;42.694;23.346;2023-02-01T11:36:48;95651.31;;;6.11;46.99
77288;BME280;66345;42.694;23.346;2023-02-01T11:44:22;95654.22;;;6.00;46.61
77288;BME280;66345;42.694;23.346;2023-02-01T11:46:51;95644.38;;;6.10;47.09
77288;BME280;66345;42.694;23.346;2023-02-01T11:49:25;95643.03;;;5.98;46.29
77288;BME280;66345;42.694;23.346;2023-02-01T12:13:38;95613.69;;;5.93;47.30
77288;BME280;66345;42.694;23.346;2023-02-01T12:27:06;95609.16;;;6.11;47.23
77288;BME280;66345;42.694;23.346;2023-02-01T12:43:02;95615.03;;;6.39;46.92
77288;BME280;66345;42.694;23.346;2023-02-01T12:45:40;95620.91;;;6.25;46.19
77288;BME280;66345;42.694;23.346;2023-02-01T12:50:53;95614.53;;;6.27;46.17
77288;BME280;66345;42.694;23.346;2023-02-01T12:53:47;95615.50;;;6.34;45.98
77288;BME280;66345;42.694;23.346;2023-02-01T12:58:53;95621.78;;;6.42;44.59
77288;BME280;66345;42.694;23.346;2023-02-01T13:01:31;95606.72;;;6.68;45.29
77288;BME280;66345;42.694;23.346;2023-02-01T13:04:38;95598.47;;;6.63;44.53
77288;BME280;66345;42.694;23.346;2023-02-01T13:07:11;95602.72;;;6.56;45.09
77288;BME280;66345;42.694;23.346;2023-02-01T13:09:50;95607.00;;;6.49;44.73
77288;BME280;66345;42.694;23.346;2023-02-01T13:12:32;95597.16;;;6.59;45.05
77288;BME280;66345;42.694;23.346;2023-02-01T13:15:09;95602.56;;;6.57;44.93
77288;BME280;66345;42.694;23.346;2023-02-01T13:17:39;95610.63;;;6.48;45.26
77288;BME280;66345;42.694;23.346;2023-02-01T13:23:11;95605.75;;;6.27;45.19
77288;BME280;66345;42.694;23.346;2023-02-01T13:25:52;95602.19;;;6.36;45.50
77288;BME280;66345;42.694;23.346;2023-02-01T13:28:57;95593.25;;;6.21;45.43
77288;BME280;66345;42.694;23.346;2023-02-01T13:34:39;95601.63;;;6.16;45.06
77288;BME280;66345;42.694;23.346;2023-02-01T13:44:55;95594.31;;;6.02;46.07
77288;BME280;66345;42.694;23.346;2023-02-01T13:47:23;95601.13;;;6.13;45.39
77288;BME280;66345;42.694;23.346;2023-02-01T13:49:49;95598.66;;;6.19;45.56
77288;BME280;66345;42.694;23.346;2023-02-01T13:52:43;95600.66;;;6.25;45.67
77288;BME280;66345;42.694;23.346;2023-02-01T13:57:40;95603.13;;;6.27;45.95
77288;BME280;66345;42.694;23.346;2023-02-01T14:05:04;95598.19;;;6.99;44.66
77288;BME280;66345;42.694;23.346;2023-02-01T14:07:30;95604.78;;;6.94;44.99
77288;BME280;66345;42.694;23.346;2023-02-01T14:09:56;95608.03;;;6.64;44.38
77288;BME280;66345;42.694;23.346;2023-02-01T14:12:44;95605.06;;;6.59;44.23
77288;BME280;66345;42.694;23.346;2023-02-01T14:15:19;95604.91;;;6.68;44.57
77288;BME280;66345;42.694;23.346;2023-02-01T14:17:46;95597.63;;;6.54;44.64
77288;BME280;66345;42.694;23.346;2023-02-01T14:23:15;95575.72;;;6.62;44.61
77288;BME280;66345;42.694;23.346;2023-02-01T14:25:44;95587.91;;;6.63;45.02
77288;BME280;66345;42.694;23.346;2023-02-01T14:28:19;95584.16;;;6.82;44.71
77288;BME280;66345;42.694;23.346;2023-02-01T14:30:48;95577.91;;;6.83;45.32
77288;BME280;66345;42.694;23.346;2023-02-01T14:33:25;95575.75;;;6.78;44.91
77288;BME280;66345;42.694;23.346;2023-02-01T14:36:02;95584.97;;;6.74;45.19
77288;BME280;66345;42.694;23.346;2023-02-01T14:38:28;95574.03;;;6.45;45.51
77288;BME280;66345;42.694;23.346;2023-02-01T14:41:23;95568.03;;;6.18;46.08
77288;BME280;66345;42.694;23.346;2023-02-01T14:52:20;95588.34;;;5.92;46.99
77288;BME280;66345;42.694;23.346;2023-02-01T14:54:53;95596.09;;;5.93;47.37
77288;BME280;66345;42.694;23.346;2023-02-01T14:57:20;95605.78;;;5.93;46.77
77288;BME280;66345;42.694;23.346;2023-02-01T14:59:49;95602.06;;;5.77;46.90
77288;BME280;66345;42.694;23.346;2023-02-01T15:02:26;95603.22;;;5.75;47.49
77288;BME280;66345;42.694;23.346;2023-02-01T15:04:54;95597.75;;;5.68;47.39
77288;BME280;66345;42.694;23.346;2023-02-01T15:07:22;95592.97;;;5.72;47.44
77288;BME280;66345;42.694;23.346;2023-02-01T15:09:50;95603.72;;;5.78;47.87
77288;BME280;66345;42.694;23.346;2023-02-01T15:12:18;95600.22;;;5.70;47.72
77288;BME280;66345;42.694;23.346;2023-02-01T15:15:13;95598.81;;;5.57;47.84
77288;BME280;66345;42.694;23.346;2023-02-01T15:17:40;95605.44;;;5.62;48.47
77288;BME280;66345;42.694;23.346;2023-02-01T15:20:21;95593.09;;;5.62;48.38
77288;BME280;66345;42.694;23.346;2023-02-01T15:23:05;95600.94;;;5.54;48.77
77288;BME280;66345;42.694;23.346;2023-02-01T15:25:34;95595.72;;;5.62;49.09
77288;BME280;66345;42.694;23.346;2023-02-01T15:28:02;95590.09;;;5.57;48.24
77288;BME280;66345;42.694;23.346;2023-02-01T15:30:31;95580.19;;;5.51;48.19
77288;BME280;66345;42.694;23.346;2023-02-01T15:33:27;95582.75;;;5.43;48.91
77288;BME280;66345;42.694;23.346;2023-02-01T15:38:35;95583.13;;;5.48;48.95
77288;BME280;66345;42.694;23.346;2023-02-01T15:43:30;95581.53;;;5.55;48.77
77288;BME280;66345;42.694;23.346;2023-02-01T15:46:02;95577.47;;;5.61;48.69
77288;BME280;66345;42.694;23.346;2023-02-01T15:48:45;95583.13;;;5.48;49.07
77288;BME280;66345;42.694;23.346;2023-02-01T15:51:17;95594.31;;;5.50;49.13
77288;BME280;66345;42.694;23.346;2023-02-01T15:53:46;95586.31;;;5.34;49.39
77288;BME280;66345;42.694;23.346;2023-02-01T15:56:13;95594.44;;;5.40;48.72
77288;BME280;66345;42.694;23.346;2023-02-01T15:58:42;95593.56;;;5.32;49.06
77288;BME280;66345;42.694;23.346;2023-02-01T16:01:11;95593.72;;;5.30;49.26
77288;BME280;66345;42.694;23.346;2023-02-01T16:03:44;95594.81;;;5.27;48.99
77288;BME280;66345;42.694;23.346;2023-02-01T16:08:54;95608.75;;;5.20;48.71